createdAt,value
2023-03-30T00:00:19.864Z,3.39
2023-03-30T00:01:19.876Z,3.28
2023-03-30T00:02:19.855Z,3.28
2023-03-30T00:03:19.984Z,3.67
2023-03-30T00:04:20.029Z,3.39
2023-03-30T00:06:19.882Z,3.56
2023-03-30T00:08:19.873Z,3.56
2023-03-30T00:10:19.873Z,3.56
2023-03-30T00:11:19.869Z,3.39
2023-03-30T00:12:19.869Z,3.28
2023-03-30T00:13:19.859Z,3.56
2023-03-30T00:14:19.882Z,3.39
2023-03-30T00:15:19.870Z,3.39
2023-03-30T00:16:19.953Z,3.39
2023-03-30T00:17:19.874Z,3.39
2023-03-30T00:18:19.877Z,3.28
2023-03-30T00:20:19.897Z,3.28
2023-03-30T00:22:19.920Z,3.11
2023-03-30T00:24:19.881Z,2.83
2023-03-30T00:25:19.909Z,3
2023-03-30T00:27:19.866Z,3
2023-03-30T00:28:19.877Z,3
2023-03-30T00:29:19.880Z,3.28
2023-03-30T00:30:19.872Z,3
2023-03-30T00:31:19.892Z,2.83
2023-03-30T00:33:25.468Z,2.83
2023-03-30T00:34:19.874Z,2.72
2023-03-30T00:35:19.889Z,2.83
2023-03-30T00:37:19.893Z,2.72
2023-03-30T00:38:19.905Z,2.83
2023-03-30T00:42:19.895Z,2.83
2023-03-30T00:43:19.897Z,2.39
2023-03-30T00:44:19.868Z,2.83
2023-03-30T00:45:19.918Z,2.83
2023-03-30T00:46:19.892Z,2.72
2023-03-30T00:47:19.882Z,3
2023-03-30T00:48:19.870Z,2.83
2023-03-30T00:49:19.891Z,2.83
2023-03-30T00:50:19.875Z,2.83
2023-03-30T00:51:19.871Z,3
2023-03-30T00:52:19.882Z,2.72
2023-03-30T00:53:19.882Z,2.72
2023-03-30T00:54:19.912Z,3
2023-03-30T00:56:19.880Z,3
2023-03-30T00:57:19.898Z,2.83
2023-03-30T00:58:19.931Z,2.83
2023-03-30T00:59:19.911Z,3
2023-03-30T01:00:19.881Z,2.83
2023-03-30T01:01:19.907Z,2.72
2023-03-30T01:02:19.887Z,2.83
2023-03-30T01:03:19.991Z,3
2023-03-30T01:04:19.880Z,3
2023-03-30T01:05:19.886Z,3.11
2023-03-30T01:06:19.880Z,3
2023-03-30T01:07:19.893Z,3
2023-03-30T01:08:19.892Z,3.11
2023-03-30T01:10:19.910Z,3
2023-03-30T01:12:19.929Z,3
2023-03-30T01:13:19.890Z,3.11
2023-03-30T01:14:19.881Z,3.28
2023-03-30T01:15:19.898Z,3.28
2023-03-30T01:17:19.875Z,2.72
2023-03-30T01:18:19.887Z,2.39
2023-03-30T01:19:19.902Z,3
2023-03-30T01:20:19.882Z,2.83
2023-03-30T01:21:19.889Z,3
2023-03-30T01:23:19.880Z,3
2023-03-30T01:24:19.875Z,3
2023-03-30T01:25:19.875Z,3.28
2023-03-30T01:26:19.924Z,3.11
2023-03-30T01:27:19.878Z,3.28
2023-03-30T01:28:19.890Z,3.28
2023-03-30T01:29:19.885Z,2.83
2023-03-30T01:30:19.889Z,3.11
2023-03-30T01:32:19.896Z,2.83
2023-03-30T01:34:19.892Z,3
2023-03-30T01:35:20.044Z,3.11
2023-03-30T01:37:19.883Z,3.11
2023-03-30T01:38:19.884Z,3.28
2023-03-30T01:39:19.875Z,2.72
2023-03-30T01:40:19.890Z,3.28
2023-03-30T01:42:19.933Z,3.11
2023-03-30T01:43:19.880Z,3.11
2023-03-30T01:44:19.896Z,3.28
2023-03-30T01:45:19.889Z,3.28
2023-03-30T01:47:19.901Z,3.39
2023-03-30T01:48:19.875Z,3.28
2023-03-30T01:49:19.887Z,3.28
2023-03-30T01:50:19.876Z,3.39
2023-03-30T01:51:19.886Z,3.39
2023-03-30T01:52:19.888Z,3.28
2023-03-30T01:54:19.888Z,3.11
2023-03-30T01:55:19.876Z,3
2023-03-30T01:56:19.899Z,3
2023-03-30T01:58:19.910Z,2.83
2023-03-30T02:00:19.912Z,2.83
2023-03-30T02:01:19.900Z,2.83
2023-03-30T02:02:19.892Z,2.83
2023-03-30T02:03:20.121Z,2.39
2023-03-30T02:05:19.880Z,3
2023-03-30T02:06:19.890Z,3.11
2023-03-30T02:08:19.906Z,3
2023-03-30T02:10:19.877Z,2.83
2023-03-30T02:11:19.878Z,3
2023-03-30T02:12:19.883Z,2.83
2023-03-30T02:13:19.884Z,3
2023-03-30T02:14:19.913Z,2.83
2023-03-30T02:15:19.882Z,2.83
2023-03-30T02:16:19.920Z,3.11
2023-03-30T02:17:19.896Z,3.11
2023-03-30T02:19:19.889Z,3.28
2023-03-30T02:20:19.881Z,3.28
2023-03-30T02:21:19.885Z,3
2023-03-30T02:23:19.897Z,3.11
2023-03-30T02:24:19.885Z,3.28
2023-03-30T02:25:19.885Z,3.28
2023-03-30T02:27:19.896Z,3.39
2023-03-30T02:28:19.903Z,3.39
2023-03-30T02:29:19.919Z,3.28
2023-03-30T02:30:19.931Z,3.28
2023-03-30T02:31:20.000Z,3
2023-03-30T02:32:19.900Z,3
2023-03-30T02:33:19.897Z,3.11
2023-03-30T02:35:19.889Z,3.11
2023-03-30T02:36:19.927Z,3.28
2023-03-30T02:37:19.893Z,3
2023-03-30T02:38:19.897Z,3
2023-03-30T02:40:19.902Z,2.83
2023-03-30T02:42:19.885Z,3
2023-03-30T02:43:19.891Z,2.72
2023-03-30T02:45:19.888Z,2.72
2023-03-30T02:46:19.945Z,3.28
2023-03-30T02:47:19.932Z,3.11
2023-03-30T02:49:19.903Z,3
2023-03-30T02:50:19.893Z,3
2023-03-30T02:52:19.909Z,3.11
2023-03-30T02:53:19.892Z,3.28
2023-03-30T02:54:19.887Z,3.28
2023-03-30T02:55:19.890Z,3
2023-03-30T02:56:19.897Z,3
2023-03-30T02:57:19.909Z,3
2023-03-30T02:58:19.900Z,3.28
2023-03-30T02:59:19.888Z,3
2023-03-30T03:00:19.913Z,3.28
2023-03-30T03:01:19.919Z,3.28
2023-03-30T03:02:19.941Z,3.28
2023-03-30T03:04:19.892Z,3.28
2023-03-30T03:05:19.906Z,3.28
2023-03-30T03:06:19.892Z,3.28
2023-03-30T03:07:19.894Z,3.28
2023-03-30T03:08:19.898Z,3.28
2023-03-30T03:09:19.892Z,3.11
2023-03-30T03:10:19.911Z,3.28
2023-03-30T03:12:19.906Z,3.11
2023-03-30T03:13:19.891Z,3
2023-03-30T03:14:19.901Z,3.28
2023-03-30T03:15:19.885Z,3.28
2023-03-30T03:16:19.911Z,3.28
2023-03-30T03:17:19.897Z,3.28
2023-03-30T03:18:19.933Z,3
2023-03-30T03:20:19.919Z,3.28
2023-03-30T03:21:19.889Z,3.11
2023-03-30T03:22:19.896Z,3.28
2023-03-30T03:23:19.896Z,2.83
2023-03-30T03:24:19.899Z,3.11
2023-03-30T03:26:19.907Z,3
2023-03-30T03:28:19.891Z,3.28
2023-03-30T03:30:19.912Z,3.11
2023-03-30T03:31:19.980Z,3.28
2023-03-30T03:32:19.906Z,3
2023-03-30T03:33:19.894Z,3.11
2023-03-30T03:34:19.923Z,3.11
2023-03-30T03:35:19.899Z,3.28
2023-03-30T03:36:19.904Z,3.39
2023-03-30T03:38:19.895Z,3
2023-03-30T03:39:19.901Z,3.28
2023-03-30T03:40:19.909Z,3.11
2023-03-30T03:42:19.895Z,3.56
2023-03-30T03:43:19.896Z,3.39
2023-03-30T03:45:19.905Z,3.11
2023-03-30T03:46:19.921Z,3.28
2023-03-30T03:47:19.903Z,3.11
2023-03-30T03:48:19.897Z,3.39
2023-03-30T03:49:19.899Z,3.11
2023-03-30T03:50:20.028Z,3.11
2023-03-30T03:51:19.903Z,3
2023-03-30T03:52:19.899Z,3.11
2023-03-30T03:53:19.907Z,3
2023-03-30T03:54:19.895Z,3
2023-03-30T03:55:19.929Z,2.72
2023-03-30T03:57:19.947Z,3.28
2023-03-30T03:59:19.902Z,3.28
2023-03-30T04:00:19.915Z,3.28
2023-03-30T04:02:21.925Z,3.28
2023-03-30T04:03:19.990Z,3.28
2023-03-30T04:05:19.901Z,3.28
2023-03-30T04:06:19.933Z,3
2023-03-30T04:08:19.906Z,3.28
2023-03-30T04:09:19.902Z,3.56
2023-03-30T04:10:19.905Z,3.39
2023-03-30T04:11:19.917Z,3.11
2023-03-30T04:12:19.903Z,3.39
2023-03-30T04:13:19.925Z,3.28
2023-03-30T04:14:20.000Z,3.28
2023-03-30T04:15:19.909Z,3.28
2023-03-30T04:16:19.941Z,3
2023-03-30T04:17:19.904Z,3.28
2023-03-30T04:18:19.916Z,3
2023-03-30T04:19:19.922Z,3.28
2023-03-30T04:21:19.924Z,3
2023-03-30T04:22:19.944Z,3.28
2023-03-30T04:23:19.909Z,3
2023-03-30T04:24:19.916Z,3.28
2023-03-30T04:25:22.033Z,3.11
2023-03-30T04:26:19.915Z,3.28
2023-03-30T04:27:19.926Z,3.28
2023-03-30T04:28:19.924Z,3.28
2023-03-30T04:30:19.926Z,3.28
2023-03-30T04:31:19.979Z,3
2023-03-30T04:32:19.999Z,3.28
2023-03-30T04:33:19.921Z,3.28
2023-03-30T04:34:19.938Z,3.56
2023-03-30T04:35:19.934Z,3.28
2023-03-30T04:37:19.916Z,3.28
2023-03-30T04:38:19.938Z,3.28
2023-03-30T04:40:19.927Z,3.39
2023-03-30T04:42:19.920Z,3.56
2023-03-30T04:43:19.913Z,3.11
2023-03-30T04:44:19.918Z,3.56
2023-03-30T04:45:19.917Z,3.28
2023-03-30T04:46:19.974Z,3.28
2023-03-30T04:47:19.916Z,3.28
2023-03-30T04:48:19.932Z,3.28
2023-03-30T04:49:19.919Z,3.39
2023-03-30T04:50:19.921Z,3.28
2023-03-30T04:51:19.936Z,3.39
2023-03-30T04:53:19.927Z,3.28
2023-03-30T04:54:19.952Z,3.11
2023-03-30T04:56:19.926Z,3.28
2023-03-30T04:57:19.994Z,3.11
2023-03-30T04:59:19.928Z,3.39
2023-03-30T05:00:19.934Z,3.39
2023-03-30T05:01:19.957Z,3.28
2023-03-30T05:02:19.942Z,3.39
2023-03-30T05:03:22.479Z,3.39
2023-03-30T05:05:19.964Z,3.67
2023-03-30T05:06:19.925Z,3.39
2023-03-30T05:07:19.923Z,3.56
2023-03-30T05:08:19.927Z,3.39
2023-03-30T05:09:19.926Z,3.39
2023-03-30T05:10:19.980Z,3.67
2023-03-30T05:11:19.914Z,3.56
2023-03-30T05:12:19.936Z,3.39
2023-03-30T05:13:19.937Z,3.39
2023-03-30T05:15:19.922Z,3.56
2023-03-30T05:16:19.942Z,3
2023-03-30T05:17:19.934Z,3.56
2023-03-30T05:19:19.925Z,3.39
2023-03-30T05:20:19.946Z,3.39
2023-03-30T05:21:19.920Z,3.56
2023-03-30T05:22:19.931Z,3.67
2023-03-30T05:23:19.922Z,3.56
2023-03-30T05:24:19.920Z,3.39
2023-03-30T05:25:19.997Z,3.56
2023-03-30T05:26:19.992Z,3.56
2023-03-30T05:28:19.922Z,3.39
2023-03-30T05:29:19.924Z,3.56
2023-03-30T05:30:19.937Z,3.56
2023-03-30T05:31:19.964Z,3.94
2023-03-30T05:32:19.942Z,3.56
2023-03-30T05:34:19.929Z,3.67
2023-03-30T05:35:19.936Z,3.67
2023-03-30T05:37:19.927Z,3.67
2023-03-30T05:38:19.933Z,3.56
2023-03-30T05:39:19.933Z,3.39
2023-03-30T05:40:19.942Z,3.67
2023-03-30T05:41:19.924Z,3.56
2023-03-30T05:42:19.960Z,3.67
2023-03-30T05:44:21.982Z,3.67
2023-03-30T05:46:19.984Z,3.67
2023-03-30T05:47:19.931Z,3.39
2023-03-30T05:48:19.946Z,3.78
2023-03-30T05:49:19.932Z,3.78
2023-03-30T05:50:19.926Z,3.56
2023-03-30T05:51:19.938Z,3.67
2023-03-30T05:53:19.935Z,3.67
2023-03-30T05:54:19.937Z,3.39
2023-03-30T05:55:19.921Z,3.56
2023-03-30T05:56:19.939Z,3.67
2023-03-30T05:57:19.964Z,3.78
2023-03-30T05:58:19.961Z,3.67
2023-03-30T06:00:19.941Z,3.67
2023-03-30T06:01:19.927Z,3.67
2023-03-30T06:02:20.005Z,3.67
2023-03-30T06:03:19.971Z,3.78
2023-03-30T06:04:20.063Z,3.78
2023-03-30T06:05:19.945Z,3.67
2023-03-30T06:06:19.948Z,3.94
2023-03-30T06:07:19.937Z,3.94
2023-03-30T06:08:22.130Z,3.78
2023-03-30T06:09:19.933Z,4.11
2023-03-30T06:10:19.940Z,3.94
2023-03-30T06:11:19.956Z,3.67
2023-03-30T06:12:19.940Z,3.94
2023-03-30T06:13:19.932Z,3.94
2023-03-30T06:14:19.958Z,4.11
2023-03-30T06:16:19.966Z,3.94
2023-03-30T06:17:19.933Z,3.78
2023-03-30T06:18:19.933Z,4.22
2023-03-30T06:19:19.930Z,4.11
2023-03-30T06:20:19.939Z,4.11
2023-03-30T06:21:19.929Z,4.11
2023-03-30T06:22:19.930Z,3.94
2023-03-30T06:23:19.939Z,4.11
2023-03-30T06:24:19.941Z,4.22
2023-03-30T06:25:19.933Z,3.94
2023-03-30T06:26:19.947Z,3.78
2023-03-30T06:27:19.946Z,4.11
2023-03-30T06:29:19.934Z,4.11
2023-03-30T06:30:19.966Z,3.78
2023-03-30T06:32:19.945Z,4.39
2023-03-30T06:33:19.940Z,4.22
2023-03-30T06:34:19.937Z,3.78
2023-03-30T06:35:19.959Z,3.94
2023-03-30T06:36:19.935Z,4.22
2023-03-30T06:37:19.935Z,4.5
2023-03-30T06:38:19.929Z,4.5
2023-03-30T06:39:19.938Z,4.5
2023-03-30T06:41:19.926Z,4.39
2023-03-30T06:42:19.921Z,4.39
2023-03-30T06:43:19.946Z,4.39
2023-03-30T06:44:19.945Z,4.67
2023-03-30T06:45:19.926Z,4.94
2023-03-30T06:46:20.058Z,4.72
2023-03-30T06:47:19.928Z,4.83
2023-03-30T06:48:19.943Z,4.5
2023-03-30T06:49:19.947Z,4.83
2023-03-30T06:51:19.962Z,4.5
2023-03-30T06:53:20.050Z,4.39
2023-03-30T06:55:19.951Z,4.39
2023-03-30T06:56:19.937Z,3.78
2023-03-30T06:58:19.947Z,4.39
2023-03-30T07:00:19.952Z,4.39
2023-03-30T07:01:19.957Z,4.5
2023-03-30T07:02:20.072Z,4.22
2023-03-30T07:04:19.977Z,4.39
2023-03-30T07:05:19.945Z,4.22
2023-03-30T07:06:20.688Z,4.5
2023-03-30T07:07:19.943Z,4.11
2023-03-30T07:08:19.943Z,4.39
2023-03-30T07:09:19.945Z,3.94
2023-03-30T07:11:19.957Z,4.22
2023-03-30T07:12:19.944Z,4.39
2023-03-30T07:13:19.935Z,4.5
2023-03-30T07:14:19.955Z,4.67
2023-03-30T07:15:19.947Z,4.39
2023-03-30T07:16:20.001Z,4.5
2023-03-30T07:18:20.009Z,4.94
2023-03-30T07:19:19.943Z,5.11
2023-03-30T07:20:19.965Z,4.94
2023-03-30T07:21:19.950Z,5.22
2023-03-30T07:22:19.950Z,4.94
2023-03-30T07:24:19.941Z,5.39
2023-03-30T07:25:19.953Z,5.11
2023-03-30T07:27:19.959Z,4.94
2023-03-30T07:28:19.941Z,5.39
2023-03-30T07:29:19.965Z,5.39
2023-03-30T07:30:22.067Z,5.56
2023-03-30T07:31:20.056Z,5.56
2023-03-30T07:33:19.974Z,5.78
2023-03-30T07:34:19.979Z,5.78
2023-03-30T07:36:20.022Z,5.94
2023-03-30T07:37:20.941Z,5.78
2023-03-30T07:38:19.945Z,5.94
2023-03-30T07:39:19.953Z,5.67
2023-03-30T07:41:19.946Z,5.94
2023-03-30T07:42:19.957Z,5.78
2023-03-30T07:43:19.949Z,5.78
2023-03-30T07:44:19.977Z,5.78
2023-03-30T07:46:19.978Z,4.94
2023-03-30T07:47:19.951Z,4.67
2023-03-30T07:48:19.948Z,5.22
2023-03-30T07:49:19.954Z,5.39
2023-03-30T07:50:19.988Z,5.22
2023-03-30T07:51:19.954Z,5.22
2023-03-30T07:52:19.955Z,5.22
2023-03-30T07:53:19.975Z,5.22
2023-03-30T07:54:19.943Z,5.39
2023-03-30T07:55:19.997Z,5.11
2023-03-30T07:57:19.985Z,4.94
2023-03-30T07:58:19.958Z,4.94
2023-03-30T07:59:19.985Z,4.94
2023-03-30T08:01:19.986Z,5.22
2023-03-30T08:03:20.011Z,5.39
2023-03-30T08:04:20.013Z,5.22
2023-03-30T08:05:20.012Z,5.39
2023-03-30T08:06:19.993Z,5.22
2023-03-30T08:08:19.962Z,5.56
2023-03-30T08:09:19.979Z,5.39
2023-03-30T08:10:19.979Z,5.39
2023-03-30T08:12:19.975Z,5.39
2023-03-30T08:14:19.963Z,5.22
2023-03-30T08:15:19.967Z,5.11
2023-03-30T08:17:19.969Z,5.39
2023-03-30T08:19:19.949Z,5.39
2023-03-30T08:20:19.968Z,5.67
2023-03-30T08:21:19.961Z,5.39
2023-03-30T08:22:19.998Z,5.39
2023-03-30T08:23:19.963Z,5.94
2023-03-30T08:24:19.964Z,5.56
2023-03-30T08:25:19.962Z,5.56
2023-03-30T08:26:19.955Z,5.39
2023-03-30T08:27:20.014Z,5.22
2023-03-30T08:28:19.954Z,5.22
2023-03-30T08:29:19.975Z,5.56
2023-03-30T08:30:19.970Z,5.39
2023-03-30T08:31:19.978Z,5.56
2023-03-30T08:32:19.964Z,5.56
2023-03-30T08:34:19.963Z,5.39
2023-03-30T08:36:20.006Z,5.67
2023-03-30T08:38:19.991Z,5.56
2023-03-30T08:40:20.013Z,5.67
2023-03-30T08:41:19.975Z,5.78
2023-03-30T08:42:19.985Z,5.78
2023-03-30T08:46:19.999Z,5.67
2023-03-30T08:47:19.964Z,6.22
2023-03-30T08:48:19.969Z,6.22
2023-03-30T08:50:19.988Z,6.22
2023-03-30T08:52:19.969Z,6.5
2023-03-30T08:53:19.972Z,6.5
2023-03-30T08:54:20.068Z,6.67
2023-03-30T08:56:20.006Z,7.11
2023-03-30T08:57:21.060Z,6.78
2023-03-30T08:58:19.976Z,6.94
2023-03-30T09:00:20.000Z,7.67
2023-03-30T09:02:19.984Z,7.94
2023-03-30T09:03:20.003Z,8.39
2023-03-30T09:04:19.980Z,8.28
2023-03-30T09:05:20.024Z,7.5
2023-03-30T09:07:19.984Z,7.94
2023-03-30T09:09:19.979Z,7.5
2023-03-30T09:10:20.047Z,7.39
2023-03-30T09:11:19.971Z,7.5
2023-03-30T09:12:19.976Z,7.94
2023-03-30T09:13:19.982Z,8.28
2023-03-30T09:14:19.976Z,8.39
2023-03-30T09:15:19.985Z,8.39
2023-03-30T09:17:19.980Z,8.39
2023-03-30T09:19:19.979Z,7.94
2023-03-30T09:21:19.978Z,7.94
2023-03-30T09:22:19.971Z,8.39
2023-03-30T09:24:19.983Z,8.78
2023-03-30T09:25:19.973Z,8.78
2023-03-30T09:26:20.031Z,7.94
2023-03-30T09:28:19.992Z,8.28
2023-03-30T09:29:19.979Z,7.94
2023-03-30T09:31:21.768Z,8.11
2023-03-30T09:33:19.981Z,8.61
2023-03-30T09:35:19.977Z,8.39
2023-03-30T09:36:20.037Z,8.5
2023-03-30T09:37:19.981Z,8.94
2023-03-30T09:39:19.992Z,8.11
2023-03-30T09:41:19.982Z,8.78
2023-03-30T09:42:20.002Z,8.5
2023-03-30T09:44:20.003Z,8.78
2023-03-30T09:45:19.986Z,8.28
2023-03-30T09:46:20.034Z,7.94
2023-03-30T09:47:19.981Z,8.11
2023-03-30T09:48:19.990Z,8.39
2023-03-30T09:49:19.980Z,7.94
2023-03-30T09:50:20.047Z,8.11
2023-03-30T09:51:20.001Z,8.39
2023-03-30T09:52:19.985Z,8.61
2023-03-30T09:54:19.990Z,8.78
2023-03-30T09:55:20.000Z,9.22
2023-03-30T09:56:19.993Z,9.39
2023-03-30T09:57:20.048Z,10.11
2023-03-30T09:58:20.103Z,10.11
2023-03-30T10:00:20.010Z,9.67
2023-03-30T10:02:20.018Z,10.67
2023-03-30T10:03:20.124Z,10.67
2023-03-30T10:04:20.001Z,11.44
2023-03-30T10:05:19.999Z,11.83
2023-03-30T10:07:19.990Z,11.83
2023-03-30T10:08:20.836Z,12.11
2023-03-30T10:09:19.978Z,12.28
2023-03-30T10:10:20.033Z,12.28
2023-03-30T10:11:19.990Z,12.11
2023-03-30T10:13:19.984Z,12.44
2023-03-30T10:14:20.086Z,11.61
2023-03-30T10:15:19.980Z,11.28
2023-03-30T10:16:20.024Z,11.83
2023-03-30T10:17:19.998Z,12.11
2023-03-30T10:18:19.992Z,12.28
2023-03-30T10:20:20.147Z,12.11
2023-03-30T10:22:19.979Z,11.83
2023-03-30T10:23:19.995Z,11.44
2023-03-30T10:24:20.004Z,10.67
2023-03-30T10:26:19.997Z,11.83
2023-03-30T10:27:20.018Z,11.61
2023-03-30T10:29:19.995Z,12.11
2023-03-30T10:30:20.204Z,12.28
2023-03-30T10:32:19.995Z,11.44
2023-03-30T10:33:20.009Z,11.11
2023-03-30T10:35:19.988Z,11.28
2023-03-30T10:36:20.050Z,11.44
2023-03-30T10:37:19.992Z,11.28
2023-03-30T10:38:19.991Z,11.61
2023-03-30T10:39:19.989Z,11.44
2023-03-30T10:41:19.994Z,11.83
2023-03-30T10:42:19.983Z,11.94
2023-03-30T10:43:19.987Z,12.28
2023-03-30T10:44:19.979Z,12.28
2023-03-30T10:45:20.035Z,12.28
2023-03-30T10:46:20.769Z,11.44
2023-03-30T10:48:20.084Z,13.06
2023-03-30T10:50:20.041Z,13.67
2023-03-30T10:51:19.992Z,14.06
2023-03-30T10:52:20.013Z,13.5
2023-03-30T10:53:19.993Z,13.5
2023-03-30T10:55:19.993Z,13.5
2023-03-30T10:56:19.998Z,13.5
2023-03-30T10:57:20.075Z,13.67
2023-03-30T10:58:20.014Z,13.5
2023-03-30T10:59:19.982Z,13.94
2023-03-30T11:00:20.096Z,14.06
2023-03-30T11:01:20.026Z,14.56
2023-03-30T11:02:20.089Z,13.94
2023-03-30T11:04:23.477Z,13.17
2023-03-30T11:05:19.979Z,13.33
2023-03-30T11:06:19.992Z,13.67
2023-03-30T11:07:20.001Z,13.33
2023-03-30T11:09:19.996Z,13.67
2023-03-30T11:10:19.997Z,13.17
2023-03-30T11:11:19.995Z,13.39
2023-03-30T11:12:19.996Z,13.5
2023-03-30T11:13:19.995Z,13.5
2023-03-30T11:14:19.982Z,13.78
2023-03-30T11:15:19.983Z,13.83
2023-03-30T11:16:20.027Z,13.22
2023-03-30T11:18:20.051Z,13.39
2023-03-30T11:20:19.992Z,12.78
2023-03-30T11:21:20.003Z,13.22
2023-03-30T11:22:19.991Z,13.11
2023-03-30T11:23:19.979Z,12.94
2023-03-30T11:24:19.987Z,12
2023-03-30T11:26:19.988Z,11.89
2023-03-30T11:28:19.978Z,12
2023-03-30T11:29:20.002Z,12.33
2023-03-30T11:31:20.004Z,13.39
2023-03-30T11:33:20.010Z,13.39
2023-03-30T11:34:20.106Z,13.67
2023-03-30T11:36:20.034Z,14
2023-03-30T11:37:19.992Z,14.11
2023-03-30T11:38:20.005Z,14
2023-03-30T11:40:20.000Z,14.44
2023-03-30T11:42:19.988Z,14.28
2023-03-30T11:43:19.985Z,14.28
2023-03-30T11:44:19.995Z,14.44
2023-03-30T11:45:19.990Z,14.11
2023-03-30T11:46:20.043Z,14.28
2023-03-30T11:47:20.004Z,14.61
2023-03-30T11:49:19.990Z,14.44
2023-03-30T11:50:20.032Z,14.61
2023-03-30T11:52:19.995Z,15.17
2023-03-30T11:54:19.996Z,15.17
2023-03-30T11:56:19.999Z,15.06
2023-03-30T11:57:20.007Z,15.28
2023-03-30T11:58:20.003Z,14.61
2023-03-30T11:59:19.997Z,13.67
2023-03-30T12:00:19.998Z,13.39
2023-03-30T12:02:20.033Z,13.39
2023-03-30T12:03:20.107Z,13.83
2023-03-30T12:05:20.003Z,14.11
2023-03-30T12:06:20.022Z,14.28
2023-03-30T12:07:20.003Z,14.28
2023-03-30T12:08:20.022Z,14.11
2023-03-30T12:09:20.028Z,14.28
2023-03-30T12:11:20.027Z,13.11
2023-03-30T12:12:20.006Z,12.33
2023-03-30T12:13:20.004Z,12.5
2023-03-30T12:14:20.010Z,12.17
2023-03-30T12:16:20.090Z,12.5
2023-03-30T12:18:20.008Z,12.78
2023-03-30T12:19:20.013Z,13.11
2023-03-30T12:20:20.005Z,13.39
2023-03-30T12:21:20.016Z,13.39
2023-03-30T12:22:20.072Z,13.39
2023-03-30T12:24:20.003Z,12.94
2023-03-30T12:26:20.013Z,12.94
2023-03-30T12:27:20.016Z,13.11
2023-03-30T12:28:20.028Z,12.33
2023-03-30T12:30:20.017Z,11.5
2023-03-30T12:31:20.046Z,11.5
2023-03-30T12:32:20.088Z,11.61
2023-03-30T12:34:20.007Z,11.61
2023-03-30T12:36:20.024Z,11.5
2023-03-30T12:37:20.014Z,11.5
2023-03-30T12:38:21.898Z,11.06
2023-03-30T12:39:20.009Z,11.89
2023-03-30T12:40:20.029Z,11.89
2023-03-30T12:41:20.018Z,12
2023-03-30T12:42:20.032Z,11.89
2023-03-30T12:44:20.034Z,12
2023-03-30T12:45:20.016Z,11.33
2023-03-30T12:46:20.098Z,11.61
2023-03-30T12:47:20.024Z,10.89
2023-03-30T12:49:20.014Z,11.06
2023-03-30T12:50:20.027Z,10.61
2023-03-30T12:51:20.020Z,11.06
2023-03-30T12:52:20.025Z,10.72
2023-03-30T12:53:21.026Z,10.89
2023-03-30T12:54:20.054Z,10.61
2023-03-30T12:56:20.027Z,10.89
2023-03-30T12:57:20.109Z,10.78
2023-03-30T12:58:20.010Z,10.89
2023-03-30T12:59:20.023Z,11.17
2023-03-30T13:01:20.057Z,10.72
2023-03-30T13:02:20.013Z,10.72
2023-03-30T13:03:20.037Z,10.61
2023-03-30T13:04:21.173Z,10.89
2023-03-30T13:06:20.023Z,10.44
2023-03-30T13:08:20.021Z,10.89
2023-03-30T13:10:20.048Z,11.06
2023-03-30T13:11:20.020Z,11.06
2023-03-30T13:12:20.029Z,11.06
2023-03-30T13:14:20.037Z,11.17
2023-03-30T13:16:20.101Z,10.89
2023-03-30T13:17:20.035Z,11.06
2023-03-30T13:19:20.022Z,11.06
2023-03-30T13:20:29.575Z,11.33
2023-03-30T13:21:20.032Z,11.33
2023-03-30T13:23:20.033Z,11.61
2023-03-30T13:24:20.023Z,11.61
2023-03-30T13:25:20.034Z,11.61
2023-03-30T13:26:32.294Z,11.61
2023-03-30T13:27:20.019Z,11.61
2023-03-30T13:28:20.020Z,11.78
2023-03-30T13:29:20.028Z,11.61
2023-03-30T13:30:20.027Z,11.61
2023-03-30T13:32:20.042Z,11.5
2023-03-30T13:33:20.026Z,11.61
2023-03-30T13:34:20.034Z,11.61
2023-03-30T13:35:20.040Z,11.5
2023-03-30T13:37:20.042Z,11.61
2023-03-30T13:39:20.025Z,11.5
2023-03-30T13:40:27.565Z,11.61
2023-03-30T13:42:20.047Z,11.78
2023-03-30T13:43:20.014Z,12
2023-03-30T13:44:20.032Z,11.89
2023-03-30T13:46:20.221Z,11.78
2023-03-30T13:47:20.081Z,11.78
2023-03-30T13:49:20.028Z,11.78
2023-03-30T13:50:20.031Z,11.61
2023-03-30T13:51:20.060Z,11.61
2023-03-30T13:52:20.028Z,11.78
2023-03-30T13:53:20.041Z,11.61
2023-03-30T13:54:20.091Z,11.5
2023-03-30T13:56:20.045Z,11.33
2023-03-30T13:58:20.060Z,10.89
2023-03-30T14:00:20.030Z,11.33
2023-03-30T14:01:20.039Z,11.17
2023-03-30T14:02:20.030Z,11.33
2023-03-30T14:03:20.043Z,11.61
2023-03-30T14:04:20.021Z,11.61
2023-03-30T14:05:20.018Z,11.5
2023-03-30T14:06:20.036Z,11.06
2023-03-30T14:07:20.023Z,11.33
2023-03-30T14:09:20.029Z,9.72
2023-03-30T14:10:20.021Z,9.56
2023-03-30T14:11:20.031Z,8.67
2023-03-30T14:13:20.031Z,8.67
2023-03-30T14:14:20.066Z,8.44
2023-03-30T14:16:20.081Z,8.61
2023-03-30T14:17:20.029Z,8.83
2023-03-30T14:18:20.035Z,8.44
2023-03-30T14:19:20.051Z,8.67
2023-03-30T14:21:20.028Z,8.83
2023-03-30T14:22:20.035Z,8.83
2023-03-30T14:24:20.059Z,9.17
2023-03-30T14:25:20.056Z,9
2023-03-30T14:26:20.049Z,9
2023-03-30T14:27:20.034Z,9
2023-03-30T14:28:20.069Z,9
2023-03-30T14:29:30.248Z,9
2023-03-30T14:30:20.093Z,8.83
2023-03-30T14:31:20.039Z,8.67
2023-03-30T14:32:20.040Z,8.83
2023-03-30T14:33:20.052Z,9
2023-03-30T14:35:20.026Z,8.44
2023-03-30T14:36:20.042Z,9
2023-03-30T14:37:21.372Z,9
2023-03-30T14:38:20.047Z,8.83
2023-03-30T14:40:20.045Z,8.67
2023-03-30T14:41:20.084Z,9
2023-03-30T14:42:20.041Z,9
2023-03-30T14:43:20.041Z,9
2023-03-30T14:44:20.084Z,9
2023-03-30T14:46:20.104Z,9
2023-03-30T14:47:20.030Z,8.67
2023-03-30T14:48:20.035Z,8.44
2023-03-30T14:49:20.070Z,8.44
2023-03-30T14:50:20.034Z,8.67
2023-03-30T14:51:20.044Z,8.61
2023-03-30T14:53:20.037Z,8.39
2023-03-30T14:54:20.026Z,8.61
2023-03-30T14:55:20.046Z,8.44
2023-03-30T14:56:20.067Z,8.61
2023-03-30T14:58:20.049Z,8.28
2023-03-30T14:59:20.043Z,8.11
2023-03-30T15:01:20.052Z,8.28
2023-03-30T15:02:20.071Z,8.39
2023-03-30T15:03:30.617Z,8.5
2023-03-30T15:04:20.088Z,8.28
2023-03-30T15:05:20.078Z,8.39
2023-03-30T15:07:20.043Z,8.78
2023-03-30T15:09:20.053Z,8.39
2023-03-30T15:11:20.042Z,8.39
2023-03-30T15:12:20.051Z,8.39
2023-03-30T15:14:20.056Z,8.39
2023-03-30T15:16:20.064Z,7.94
2023-03-30T15:17:20.054Z,7.94
2023-03-30T15:18:20.063Z,7.5
2023-03-30T15:20:20.052Z,7.94
2023-03-30T15:21:20.041Z,7.78
2023-03-30T15:22:20.036Z,7.94
2023-03-30T15:23:20.040Z,7.67
2023-03-30T15:25:20.039Z,7.5
2023-03-30T15:26:20.034Z,7.67
2023-03-30T15:27:20.042Z,7.67
2023-03-30T15:28:20.036Z,7.78
2023-03-30T15:30:20.039Z,7.5
2023-03-30T15:31:20.088Z,7.78
2023-03-30T15:32:20.032Z,7.67
2023-03-30T15:33:20.050Z,7.39
2023-03-30T15:34:20.070Z,7.5
2023-03-30T15:35:20.033Z,7.39
2023-03-30T15:36:20.040Z,7.67
2023-03-30T15:38:20.038Z,7.67
2023-03-30T15:39:20.036Z,7.67
2023-03-30T15:40:20.041Z,7.67
2023-03-30T15:42:20.052Z,7.67
2023-03-30T15:43:20.070Z,7.39
2023-03-30T15:45:20.042Z,7.67
2023-03-30T15:46:20.068Z,7.94
2023-03-30T15:47:20.042Z,7.78
2023-03-30T15:49:20.048Z,7.78
2023-03-30T15:50:20.069Z,7.67
2023-03-30T15:51:20.046Z,7.67
2023-03-30T15:52:20.050Z,7.5
2023-03-30T15:53:20.041Z,7.5
2023-03-30T15:54:20.092Z,7.5
2023-03-30T15:55:20.065Z,7.78
2023-03-30T15:57:20.153Z,7.22
2023-03-30T15:58:20.050Z,7.39
2023-03-30T15:59:20.061Z,7.5
2023-03-30T16:00:20.800Z,7.5
2023-03-30T16:01:20.193Z,7.39
2023-03-30T16:03:20.065Z,7.39
2023-03-30T16:04:20.094Z,7.22
2023-03-30T16:06:20.076Z,7.39
2023-03-30T16:08:20.043Z,7.5
2023-03-30T16:09:20.147Z,7.22
2023-03-30T16:10:20.055Z,7.5
2023-03-30T16:11:20.060Z,7.11
2023-03-30T16:13:20.037Z,7.39
2023-03-30T16:14:20.164Z,7.39
2023-03-30T16:16:20.080Z,7.22
2023-03-30T16:17:20.072Z,7.5
2023-03-30T16:19:20.293Z,7.5
2023-03-30T16:20:20.062Z,7.39
2023-03-30T16:21:20.047Z,7.22
2023-03-30T16:22:20.106Z,7.5
2023-03-30T16:24:20.056Z,7.22
2023-03-30T16:25:21.230Z,7.5
2023-03-30T16:26:20.049Z,7.67
2023-03-30T16:27:20.047Z,7.78
2023-03-30T16:28:20.063Z,7.67
2023-03-30T16:30:20.127Z,7.39
2023-03-30T16:31:20.155Z,7.5
2023-03-30T16:33:20.051Z,7.11
2023-03-30T16:34:20.056Z,7.11
2023-03-30T16:36:20.060Z,7.11
2023-03-30T16:38:20.091Z,6.94
2023-03-30T16:40:20.054Z,7.11
2023-03-30T16:42:20.071Z,7.11
2023-03-30T16:44:20.055Z,7.22
2023-03-30T16:45:20.056Z,7.22
2023-03-30T16:46:20.159Z,7.11
2023-03-30T16:48:20.062Z,6.67
2023-03-30T16:49:20.041Z,6.94
2023-03-30T16:50:20.066Z,7.11
2023-03-30T16:51:20.168Z,7.11
2023-03-30T16:52:20.054Z,6.94
2023-03-30T16:53:20.063Z,6.5
2023-03-30T16:54:30.966Z,6.78
2023-03-30T16:56:20.067Z,6.94
2023-03-30T16:57:20.091Z,6.78
2023-03-30T16:58:20.074Z,6.67
2023-03-30T17:00:20.074Z,6.78
2023-03-30T17:01:20.070Z,7.11
2023-03-30T17:02:20.293Z,6.94